sensor_id;sensor_type;location;lat;lon;timestamp;pressure;altitude;pressure_sealevel;temperature;humidity
20009;BME280;10165;42.662;23.260;2023-04-06T00:00:50;93862.22;;;1.92;59.41
20009;BME280;10165;42.662;23.260;2023-04-06T00:03:17;93858.25;;;2.53;58.55
20009;BME280;10165;42.662;23.260;2023-04-06T00:05:44;93864.88;;;2.28;58.68
20009;BME280;10165;42.662;23.260;2023-04-06T00:08:11;93849.81;;;2.06;59.24
20009;BME280;10165;42.662;23.260;2023-04-06T00:10:38;93845.31;;;1.71;59.57
20009;BME280;10165;42.662;23.260;2023-04-06T00:13:05;93845.00;;;2.22;58.33
20009;BME280;10165;42.662;23.260;2023-04-06T00:15:33;93839.19;;;2.56;57.50
20009;BME280;10165;42.662;23.260;2023-04-06T00:18:00;93831.09;;;2.30;58.13
20009;BME280;10165;42.662;23.260;2023-04-06T00:20:27;93832.81;;;2.34;58.16
20009;BME280;10165;42.662;23.260;2023-04-06T00:22:53;93834.38;;;2.35;57.89
20009;BME280;10165;42.662;23.260;2023-04-06T00:25:20;93830.00;;;2.09;57.93
20009;BME280;10165;42.662;23.260;2023-04-06T00:27:47;93826.72;;;1.89;58.81
20009;BME280;10165;42.662;23.260;2023-04-06T00:30:14;93821.69;;;1.79;59.05
20009;BME280;10165;42.662;23.260;2023-04-06T00:32:40;93823.88;;;1.50;60.24
20009;BME280;10165;42.662;23.260;2023-04-06T00:35:07;93821.63;;;1.57;60.51
20009;BME280;10165;42.662;23.260;2023-04-06T00:37:34;93811.72;;;1.76;60.16
20009;BME280;10165;42.662;23.260;2023-04-06T00:40:01;93820.19;;;1.51;60.23
20009;BME280;10165;42.662;23.260;2023-04-06T00:42:28;93826.19;;;1.79;59.93
20009;BME280;10165;42.662;23.260;2023-04-06T00:44:57;93822.75;;;1.78;59.66
20009;BME280;10165;42.662;23.260;2023-04-06T00:47:26;93816.44;;;1.79;59.89
20009;BME280;10165;42.662;23.260;2023-04-06T00:49:53;93817.00;;;2.12;59.87
20009;BME280;10165;42.662;23.260;2023-04-06T00:52:21;93817.72;;;2.04;58.96
20009;BME280;10165;42.662;23.260;2023-04-06T00:54:48;93812.44;;;2.26;59.66
20009;BME280;10165;42.662;23.260;2023-04-06T00:57:15;93817.50;;;2.14;59.07
20009;BME280;10165;42.662;23.260;2023-04-06T00:59:42;93808.63;;;1.74;60.68
20009;BME280;10165;42.662;23.260;2023-04-06T01:02:09;93812.44;;;2.04;59.95
20009;BME280;10165;42.662;23.260;2023-04-06T01:04:36;93820.78;;;2.20;59.67
20009;BME280;10165;42.662;23.260;2023-04-06T01:07:03;93812.22;;;2.36;58.97
20009;BME280;10165;42.662;23.260;2023-04-06T01:09:30;93813.44;;;2.53;58.88
20009;BME280;10165;42.662;23.260;2023-04-06T01:11:57;93813.00;;;2.15;58.71
20009;BME280;10165;42.662;23.260;2023-04-06T01:14:25;93814.34;;;2.26;58.94
20009;BME280;10165;42.662;23.260;2023-04-06T01:16:52;93806.47;;;2.12;59.97
20009;BME280;10165;42.662;23.260;2023-04-06T01:19:19;93802.28;;;2.11;59.68
20009;BME280;10165;42.662;23.260;2023-04-06T01:21:47;93799.50;;;2.30;59.52
20009;BME280;10165;42.662;23.260;2023-04-06T01:24:16;93802.78;;;2.00;59.62
20009;BME280;10165;42.662;23.260;2023-04-06T01:26:42;93811.28;;;2.32;58.89
20009;BME280;10165;42.662;23.260;2023-04-06T01:29:09;93809.00;;;2.39;59.09
20009;BME280;10165;42.662;23.260;2023-04-06T01:31:36;93797.56;;;2.22;59.49
20009;BME280;10165;42.662;23.260;2023-04-06T01:34:03;93798.88;;;2.33;59.19
20009;BME280;10165;42.662;23.260;2023-04-06T01:36:30;93805.03;;;2.51;58.96
20009;BME280;10165;42.662;23.260;2023-04-06T01:38:57;93797.84;;;2.42;59.34
20009;BME280;10165;42.662;23.260;2023-04-06T01:41:24;93787.75;;;2.36;58.64
20009;BME280;10165;42.662;23.260;2023-04-06T01:43:50;93793.72;;;2.28;59.01
20009;BME280;10165;42.662;23.260;2023-04-06T01:46:20;93793.63;;;2.33;60.23
20009;BME280;10165;42.662;23.260;2023-04-06T01:48:47;93787.06;;;2.30;58.40
20009;BME280;10165;42.662;23.260;2023-04-06T01:51:14;93784.41;;;1.86;60.12
20009;BME280;10165;42.662;23.260;2023-04-06T01:53:41;93787.91;;;1.95;59.96
20009;BME280;10165;42.662;23.260;2023-04-06T01:56:08;93788.97;;;1.94;59.79
20009;BME280;10165;42.662;23.260;2023-04-06T01:58:34;93788.28;;;1.66;60.75
20009;BME280;10165;42.662;23.260;2023-04-06T02:01:01;93777.78;;;1.53;61.30
20009;BME280;10165;42.662;23.260;2023-04-06T02:03:28;93778.44;;;1.72;61.34
20009;BME280;10165;42.662;23.260;2023-04-06T02:05:55;93778.09;;;2.09;59.60
20009;BME280;10165;42.662;23.260;2023-04-06T02:08:22;93778.44;;;1.72;60.65
20009;BME280;10165;42.662;23.260;2023-04-06T02:10:48;93780.63;;;2.14;59.81
20009;BME280;10165;42.662;23.260;2023-04-06T02:13:15;93774.16;;;2.20;59.79
20009;BME280;10165;42.662;23.260;2023-04-06T02:15:42;93779.13;;;2.22;59.04
20009;BME280;10165;42.662;23.260;2023-04-06T02:18:08;93775.03;;;2.38;59.64
20009;BME280;10165;42.662;23.260;2023-04-06T02:20:36;93768.44;;;1.82;60.16
20009;BME280;10165;42.662;23.260;2023-04-06T02:23:03;93774.78;;;1.81;60.78
20009;BME280;10165;42.662;23.260;2023-04-06T02:25:29;93777.06;;;2.19;60.28
20009;BME280;10165;42.662;23.260;2023-04-06T02:27:56;93775.09;;;1.80;60.23
20009;BME280;10165;42.662;23.260;2023-04-06T02:30:23;93773.72;;;2.27;59.62
20009;BME280;10165;42.662;23.260;2023-04-06T02:32:50;93775.09;;;2.02;59.67
20009;BME280;10165;42.662;23.260;2023-04-06T02:35:16;93774.75;;;2.17;59.53
20009;BME280;10165;42.662;23.260;2023-04-06T02:37:43;93776.84;;;2.29;59.42
20009;BME280;10165;42.662;23.260;2023-04-06T02:40:10;93780.94;;;1.77;60.11
20009;BME280;10165;42.662;23.260;2023-04-06T02:42:37;93782.69;;;2.04;60.45
20009;BME280;10165;42.662;23.260;2023-04-06T02:45:04;93778.28;;;2.13;59.97
20009;BME280;10165;42.662;23.260;2023-04-06T02:47:30;93773.78;;;2.35;60.17
20009;BME280;10165;42.662;23.260;2023-04-06T02:49:57;93780.06;;;2.04;59.83
20009;BME280;10165;42.662;23.260;2023-04-06T02:52:24;93777.59;;;1.85;59.89
20009;BME280;10165;42.662;23.260;2023-04-06T02:54:51;93772.81;;;2.31;59.36
20009;BME280;10165;42.662;23.260;2023-04-06T02:57:17;93768.09;;;2.73;58.57
20009;BME280;10165;42.662;23.260;2023-04-06T02:59:44;93775.47;;;2.93;57.70
20009;BME280;10165;42.662;23.260;2023-04-06T03:02:11;93774.13;;;2.73;58.28
20009;BME280;10165;42.662;23.260;2023-04-06T03:04:38;93770.66;;;2.86;58.13
20009;BME280;10165;42.662;23.260;2023-04-06T03:07:04;93773.31;;;2.95;57.80
20009;BME280;10165;42.662;23.260;2023-04-06T03:09:31;93763.63;;;2.82;58.06
20009;BME280;10165;42.662;23.260;2023-04-06T03:11:58;93774.13;;;2.73;58.42
20009;BME280;10165;42.662;23.260;2023-04-06T03:14:25;93772.22;;;2.34;59.63
20009;BME280;10165;42.662;23.260;2023-04-06T03:16:51;93768.63;;;2.53;59.00
20009;BME280;10165;42.662;23.260;2023-04-06T03:19:18;93779.94;;;2.31;59.39
20009;BME280;10165;42.662;23.260;2023-04-06T03:21:45;93778.31;;;2.44;59.41
20009;BME280;10165;42.662;23.260;2023-04-06T03:24:12;93770.84;;;2.15;59.29
20009;BME280;10165;42.662;23.260;2023-04-06T03:26:41;93772.13;;;2.70;58.48
20009;BME280;10165;42.662;23.260;2023-04-06T03:29:07;93776.50;;;2.22;60.02
20009;BME280;10165;42.662;23.260;2023-04-06T03:31:34;93773.72;;;2.05;60.09
20009;BME280;10165;42.662;23.260;2023-04-06T03:34:01;93759.47;;;2.28;59.75
20009;BME280;10165;42.662;23.260;2023-04-06T03:36:28;93772.03;;;1.86;60.33
20009;BME280;10165;42.662;23.260;2023-04-06T03:38:55;93764.69;;;2.19;60.50
20009;BME280;10165;42.662;23.260;2023-04-06T03:41:26;93772.47;;;2.02;59.58
20009;BME280;10165;42.662;23.260;2023-04-06T03:43:53;93770.31;;;2.57;59.44
20009;BME280;10165;42.662;23.260;2023-04-06T03:46:19;93767.50;;;2.76;58.86
20009;BME280;10165;42.662;23.260;2023-04-06T03:48:48;93768.38;;;3.02;57.79
20009;BME280;10165;42.662;23.260;2023-04-06T03:51:15;93774.63;;;2.45;58.24
20009;BME280;10165;42.662;23.260;2023-04-06T03:53:41;93766.72;;;2.22;59.03
20009;BME280;10165;42.662;23.260;2023-04-06T03:56:08;93761.19;;;2.55;58.86
20009;BME280;10165;42.662;23.260;2023-04-06T03:58:35;93760.72;;;2.83;57.99
20009;BME280;10165;42.662;23.260;2023-04-06T04:01:01;93762.78;;;2.33;58.90
20009;BME280;10165;42.662;23.260;2023-04-06T04:03:28;93761.63;;;2.48;58.46
20009;BME280;10165;42.662;23.260;2023-04-06T04:05:55;93769.47;;;3.01;57.80
20009;BME280;10165;42.662;23.260;2023-04-06T04:08:24;93763.53;;;2.65;58.31
20009;BME280;10165;42.662;23.260;2023-04-06T04:10:50;93763.09;;;2.63;58.01
20009;BME280;10165;42.662;23.260;2023-04-06T04:13:17;93767.19;;;2.77;57.48
20009;BME280;10165;42.662;23.260;2023-04-06T04:15:44;93761.44;;;2.75;57.91
20009;BME280;10165;42.662;23.260;2023-04-06T04:18:11;93764.47;;;3.00;57.73
20009;BME280;10165;42.662;23.260;2023-04-06T04:20:38;93778.38;;;2.83;57.72
20009;BME280;10165;42.662;23.260;2023-04-06T04:23:05;93765.94;;;2.75;58.00
20009;BME280;10165;42.662;23.260;2023-04-06T04:25:31;93774.59;;;2.67;57.69
20009;BME280;10165;42.662;23.260;2023-04-06T04:27:58;93771.88;;;2.05;59.30
20009;BME280;10165;42.662;23.260;2023-04-06T04:30:25;93767.50;;;2.23;59.27
20009;BME280;10165;42.662;23.260;2023-04-06T04:32:52;93769.75;;;2.38;59.27
20009;BME280;10165;42.662;23.260;2023-04-06T04:35:19;93769.22;;;2.27;59.35
20009;BME280;10165;42.662;23.260;2023-04-06T04:37:46;93772.81;;;2.31;59.05
20009;BME280;10165;42.662;23.260;2023-04-06T04:40:13;93769.47;;;2.17;59.37
20009;BME280;10165;42.662;23.260;2023-04-06T04:42:39;93777.13;;;2.27;59.45
20009;BME280;10165;42.662;23.260;2023-04-06T04:45:06;93770.81;;;2.59;59.01
20009;BME280;10165;42.662;23.260;2023-04-06T04:47:33;93771.59;;;2.99;58.15
20009;BME280;10165;42.662;23.260;2023-04-06T04:50:00;93773.34;;;3.04;57.35
20009;BME280;10165;42.662;23.260;2023-04-06T04:52:27;93767.91;;;3.48;56.87
20009;BME280;10165;42.662;23.260;2023-04-06T04:54:54;93768.16;;;3.38;55.89
20009;BME280;10165;42.662;23.260;2023-04-06T04:57:20;93767.97;;;2.78;58.08
20009;BME280;10165;42.662;23.260;2023-04-06T04:59:47;93762.69;;;2.78;58.07
20009;BME280;10165;42.662;23.260;2023-04-06T05:02:14;93761.25;;;3.11;57.54
20009;BME280;10165;42.662;23.260;2023-04-06T05:04:41;93760.72;;;2.83;58.05
20009;BME280;10165;42.662;23.260;2023-04-06T05:07:09;93757.41;;;3.17;56.50
20009;BME280;10165;42.662;23.260;2023-04-06T05:09:35;93759.78;;;2.88;57.52
20009;BME280;10165;42.662;23.260;2023-04-06T05:12:02;93747.88;;;2.99;57.27
20009;BME280;10165;42.662;23.260;2023-04-06T05:14:29;93759.75;;;2.79;58.00
20009;BME280;10165;42.662;23.260;2023-04-06T05:16:56;93763.72;;;2.68;58.72
20009;BME280;10165;42.662;23.260;2023-04-06T05:19:22;93748.56;;;3.13;58.42
20009;BME280;10165;42.662;23.260;2023-04-06T05:21:49;93749.22;;;2.88;58.19
20009;BME280;10165;42.662;23.260;2023-04-06T05:24:16;93760.72;;;2.83;57.51
20009;BME280;10165;42.662;23.260;2023-04-06T05:26:42;93754.88;;;3.04;57.61
20009;BME280;10165;42.662;23.260;2023-04-06T05:29:10;93758.66;;;3.20;57.57
20009;BME280;10165;42.662;23.260;2023-04-06T05:31:37;93761.72;;;3.05;57.58
20009;BME280;10165;42.662;23.260;2023-04-06T05:34:04;93757.00;;;2.93;58.36
20009;BME280;10165;42.662;23.260;2023-04-06T05:36:31;93755.69;;;2.73;58.17
20009;BME280;10165;42.662;23.260;2023-04-06T05:38:58;93754.13;;;2.72;58.02
20009;BME280;10165;42.662;23.260;2023-04-06T05:41:25;93750.13;;;2.75;58.85
20009;BME280;10165;42.662;23.260;2023-04-06T05:43:52;93752.72;;;3.14;58.18
20009;BME280;10165;42.662;23.260;2023-04-06T05:46:19;93752.06;;;3.91;56.42
20009;BME280;10165;42.662;23.260;2023-04-06T05:48:46;93748.31;;;3.58;56.32
20009;BME280;10165;42.662;23.260;2023-04-06T05:51:13;93752.63;;;3.28;56.82
20009;BME280;10165;42.662;23.260;2023-04-06T05:53:39;93752.34;;;3.47;57.16
20009;BME280;10165;42.662;23.260;2023-04-06T05:56:07;93749.13;;;3.84;56.72
20009;BME280;10165;42.662;23.260;2023-04-06T05:58:33;93741.78;;;3.47;57.29
20009;BME280;10165;42.662;23.260;2023-04-06T06:01:00;93745.69;;;3.66;56.67
20009;BME280;10165;42.662;23.260;2023-04-06T06:03:27;93748.16;;;3.46;57.54
20009;BME280;10165;42.662;23.260;2023-04-06T06:05:59;93751.59;;;3.55;58.04
20009;BME280;10165;42.662;23.260;2023-04-06T06:08:26;93737.38;;;3.16;58.67
20009;BME280;10165;42.662;23.260;2023-04-06T06:10:52;93745.31;;;3.33;58.37
20009;BME280;10165;42.662;23.260;2023-04-06T06:13:19;93747.97;;;3.33;57.79
20009;BME280;10165;42.662;23.260;2023-04-06T06:15:46;93742.38;;;3.26;58.40
20009;BME280;10165;42.662;23.260;2023-04-06T06:18:12;93742.38;;;3.26;58.06
20009;BME280;10165;42.662;23.260;2023-04-06T06:20:39;93741.78;;;3.29;57.99
20009;BME280;10165;42.662;23.260;2023-04-06T06:23:06;93747.84;;;3.64;57.26
20009;BME280;10165;42.662;23.260;2023-04-06T06:25:33;93747.03;;;3.21;57.86
20009;BME280;10165;42.662;23.260;2023-04-06T06:27:59;93746.38;;;3.15;58.72
20009;BME280;10165;42.662;23.260;2023-04-06T06:30:26;93740.88;;;3.60;57.26
20009;BME280;10165;42.662;23.260;2023-04-06T06:32:53;93733.25;;;3.58;57.10
20009;BME280;10165;42.662;23.260;2023-04-06T06:35:19;93744.25;;;3.34;58.33
20009;BME280;10165;42.662;23.260;2023-04-06T06:37:46;93744.28;;;3.69;57.32
20009;BME280;10165;42.662;23.260;2023-04-06T06:40:13;93745.53;;;3.80;56.71
20009;BME280;10165;42.662;23.260;2023-04-06T06:42:42;93748.34;;;3.83;56.81
20009;BME280;10165;42.662;23.260;2023-04-06T06:45:09;93742.91;;;4.06;55.65
20009;BME280;10165;42.662;23.260;2023-04-06T06:47:36;93752.41;;;3.98;56.22
20009;BME280;10165;42.662;23.260;2023-04-06T06:50:03;93741.63;;;3.43;57.28
20009;BME280;10165;42.662;23.260;2023-04-06T06:52:30;93758.72;;;3.54;56.69
20009;BME280;10165;42.662;23.260;2023-04-06T06:54:56;93748.66;;;3.65;57.39
20009;BME280;10165;42.662;23.260;2023-04-06T06:57:23;93749.56;;;3.52;58.06
20009;BME280;10165;42.662;23.260;2023-04-06T06:59:50;93754.28;;;3.15;57.95
20009;BME280;10165;42.662;23.260;2023-04-06T07:02:16;93752.81;;;3.57;58.09
20009;BME280;10165;42.662;23.260;2023-04-06T07:04:47;93741.97;;;3.59;57.09
20009;BME280;10165;42.662;23.260;2023-04-06T07:07:14;93754.38;;;3.50;56.89
20009;BME280;10165;42.662;23.260;2023-04-06T07:09:40;93744.47;;;3.81;56.86
20009;BME280;10165;42.662;23.260;2023-04-06T07:12:07;93746.03;;;3.82;57.13
20009;BME280;10165;42.662;23.260;2023-04-06T07:14:33;93738.38;;;4.41;55.10
20009;BME280;10165;42.662;23.260;2023-04-06T07:17:00;93743.75;;;4.53;54.60
20009;BME280;10165;42.662;23.260;2023-04-06T07:19:27;93747.56;;;4.00;56.11
20009;BME280;10165;42.662;23.260;2023-04-06T07:21:54;93738.53;;;3.58;56.95
20009;BME280;10165;42.662;23.260;2023-04-06T07:24:20;93746.00;;;3.99;56.13
20009;BME280;10165;42.662;23.260;2023-04-06T07:26:47;93760.13;;;3.52;56.49
20009;BME280;10165;42.662;23.260;2023-04-06T07:29:14;93749.44;;;3.74;56.56
20009;BME280;10165;42.662;23.260;2023-04-06T07:31:41;93754.56;;;3.96;55.75
20009;BME280;10165;42.662;23.260;2023-04-06T07:34:07;93751.13;;;4.30;55.92
20009;BME280;10165;42.662;23.260;2023-04-06T07:36:34;93738.81;;;4.43;55.29
20009;BME280;10165;42.662;23.260;2023-04-06T07:39:01;93747.09;;;4.32;54.90
20009;BME280;10165;42.662;23.260;2023-04-06T07:41:28;93738.28;;;4.75;55.46
20009;BME280;10165;42.662;23.260;2023-04-06T07:43:55;93739.25;;;5.00;53.57
20009;BME280;10165;42.662;23.260;2023-04-06T07:46:22;93740.50;;;5.02;53.64
20009;BME280;10165;42.662;23.260;2023-04-06T07:48:49;93742.06;;;5.03;54.05
20009;BME280;10165;42.662;23.260;2023-04-06T07:51:16;93748.91;;;5.34;52.78
20009;BME280;10165;42.662;23.260;2023-04-06T07:53:44;93744.03;;;4.77;53.49
20009;BME280;10165;42.662;23.260;2023-04-06T07:56:11;93744.94;;;4.81;53.90
20009;BME280;10165;42.662;23.260;2023-04-06T07:58:38;93733.81;;;5.63;52.44
20009;BME280;10165;42.662;23.260;2023-04-06T08:01:05;93738.63;;;5.03;53.05
20009;BME280;10165;42.662;23.260;2023-04-06T08:03:35;93741.34;;;5.23;53.14
20009;BME280;10165;42.662;23.260;2023-04-06T08:06:03;93743.78;;;4.99;53.50
20009;BME280;10165;42.662;23.260;2023-04-06T08:08:29;93734.91;;;4.95;53.24
20009;BME280;10165;42.662;23.260;2023-04-06T08:10:57;93749.97;;;5.12;52.87
20009;BME280;10165;42.662;23.260;2023-04-06T08:13:27;93748.06;;;4.02;54.57
20009;BME280;10165;42.662;23.260;2023-04-06T08:15:54;93750.03;;;4.22;54.86
20009;BME280;10165;42.662;23.260;2023-04-06T08:18:21;93745.84;;;4.94;54.41
20009;BME280;10165;42.662;23.260;2023-04-06T08:20:48;93742.56;;;5.26;53.36
20009;BME280;10165;42.662;23.260;2023-04-06T08:23:15;93750.91;;;4.61;54.23
20009;BME280;10165;42.662;23.260;2023-04-06T08:25:43;93741.50;;;5.18;53.79
20009;BME280;10165;42.662;23.260;2023-04-06T08:28:10;93753.69;;;4.73;53.50
20009;BME280;10165;42.662;23.260;2023-04-06T08:30:40;93755.69;;;4.76;53.03
20009;BME280;10165;42.662;23.260;2023-04-06T08:33:07;93764.19;;;4.35;53.69
20009;BME280;10165;42.662;23.260;2023-04-06T08:35:34;93756.75;;;4.11;54.71
20009;BME280;10165;42.662;23.260;2023-04-06T08:38:00;93765.41;;;5.01;53.38
20009;BME280;10165;42.662;23.260;2023-04-06T08:40:27;93753.81;;;5.23;52.77
20009;BME280;10165;42.662;23.260;2023-04-06T08:42:55;93746.59;;;4.48;52.76
20009;BME280;10165;42.662;23.260;2023-04-06T08:45:22;93750.47;;;4.42;53.13
20009;BME280;10165;42.662;23.260;2023-04-06T08:47:53;93761.44;;;4.78;53.24
20009;BME280;10165;42.662;23.260;2023-04-06T08:50:21;93756.44;;;4.85;52.24
20009;BME280;10165;42.662;23.260;2023-04-06T08:52:48;93760.94;;;4.93;52.01
20009;BME280;10165;42.662;23.260;2023-04-06T08:55:15;93758.53;;;4.71;53.13
20009;BME280;10165;42.662;23.260;2023-04-06T08:57:43;93753.53;;;4.69;53.11
20009;BME280;10165;42.662;23.260;2023-04-06T09:00:11;93749.09;;;4.91;52.96
20009;BME280;10165;42.662;23.260;2023-04-06T09:02:39;93739.13;;;5.25;52.05
20009;BME280;10165;42.662;23.260;2023-04-06T09:05:09;93745.63;;;5.37;51.33
20009;BME280;10165;42.662;23.260;2023-04-06T09:07:37;93742.56;;;5.55;51.13
20009;BME280;10165;42.662;23.260;2023-04-06T09:10:05;93747.53;;;5.57;51.23
20009;BME280;10165;42.662;23.260;2023-04-06T09:12:32;93740.69;;;5.26;51.96
20009;BME280;10165;42.662;23.260;2023-04-06T09:15:00;93738.34;;;4.96;52.39
20009;BME280;10165;42.662;23.260;2023-04-06T09:17:29;93735.00;;;5.16;52.16
20009;BME280;10165;42.662;23.260;2023-04-06T09:19:56;93749.94;;;4.82;52.35
20009;BME280;10165;42.662;23.260;2023-04-06T09:22:23;93729.69;;;5.16;52.69
20009;BME280;10165;42.662;23.260;2023-04-06T09:24:54;93738.84;;;5.27;50.50
20009;BME280;10165;42.662;23.260;2023-04-06T09:27:32;93739.25;;;5.00;51.67
20009;BME280;10165;42.662;23.260;2023-04-06T09:30:10;93736.81;;;5.53;51.29
20009;BME280;10165;42.662;23.260;2023-04-06T09:32:52;93734.28;;;5.86;50.07
20009;BME280;10165;42.662;23.260;2023-04-06T09:35:20;93741.13;;;5.87;49.44
20009;BME280;10165;42.662;23.260;2023-04-06T09:37:48;93730.81;;;5.44;50.34
20009;BME280;10165;42.662;23.260;2023-04-06T09:40:16;93744.72;;;5.62;49.88
20009;BME280;10165;42.662;23.260;2023-04-06T09:42:46;93737.50;;;5.42;49.93
20009;BME280;10165;42.662;23.260;2023-04-06T09:45:13;93741.25;;;5.11;50.68
20009;BME280;10165;42.662;23.260;2023-04-06T09:47:44;93735.34;;;5.64;49.16
20009;BME280;10165;42.662;23.260;2023-04-06T09:50:13;93733.28;;;5.70;50.48
20009;BME280;10165;42.662;23.260;2023-04-06T09:52:51;93734.19;;;5.24;50.83
20009;BME280;10165;42.662;23.260;2023-04-06T09:55:26;93733.44;;;5.44;50.00
20009;BME280;10165;42.662;23.260;2023-04-06T10:00:32;93722.81;;;5.23;50.56
20009;BME280;10165;42.662;23.260;2023-04-06T10:08:17;93739.25;;;4.62;50.95
20009;BME280;10165;42.662;23.260;2023-04-06T10:10:46;93728.44;;;4.84;51.53
20009;BME280;10165;42.662;23.260;2023-04-06T10:13:12;93731.47;;;5.03;50.14
20009;BME280;10165;42.662;23.260;2023-04-06T10:15:39;93728.69;;;5.79;50.38
20009;BME280;10165;42.662;23.260;2023-04-06T10:18:07;93717.44;;;5.61;49.86
20009;BME280;10165;42.662;23.260;2023-04-06T10:20:50;93714.25;;;5.68;48.70
20009;BME280;10165;42.662;23.260;2023-04-06T10:23:48;93706.44;;;5.51;49.03
20009;BME280;10165;42.662;23.260;2023-04-06T10:26:17;93708.66;;;5.19;50.57
20009;BME280;10165;42.662;23.260;2023-04-06T10:28:45;93709.97;;;5.63;49.36
20009;BME280;10165;42.662;23.260;2023-04-06T10:31:13;93694.31;;;6.12;49.33
20009;BME280;10165;42.662;23.260;2023-04-06T10:33:40;93705.94;;;5.57;47.84
20009;BME280;10165;42.662;23.260;2023-04-06T10:36:14;93698.72;;;5.66;48.13
20009;BME280;10165;42.662;23.260;2023-04-06T10:38:42;93696.84;;;5.67;49.21
20009;BME280;10165;42.662;23.260;2023-04-06T10:41:10;93690.75;;;6.08;50.07
20009;BME280;10165;42.662;23.260;2023-04-06T10:43:39;93690.84;;;7.01;48.11
20009;BME280;10165;42.662;23.260;2023-04-06T10:46:07;93703.34;;;5.69;49.58
20009;BME280;10165;42.662;23.260;2023-04-06T10:48:39;93698.59;;;6.04;50.46
20009;BME280;10165;42.662;23.260;2023-04-06T10:51:08;93695.13;;;6.24;49.74
20009;BME280;10165;42.662;23.260;2023-04-06T10:53:36;93696.28;;;6.48;48.97
20009;BME280;10165;42.662;23.260;2023-04-06T10:56:04;93700.44;;;6.69;48.19
20009;BME280;10165;42.662;23.260;2023-04-06T10:58:35;93689.88;;;6.49;48.19
20009;BME280;10165;42.662;23.260;2023-04-06T11:01:03;93690.38;;;6.75;47.39
20009;BME280;10165;42.662;23.260;2023-04-06T11:03:29;93689.47;;;6.71;47.35
20009;BME280;10165;42.662;23.260;2023-04-06T11:05:56;93701.16;;;6.13;47.25
20009;BME280;10165;42.662;23.260;2023-04-06T11:08:25;93682.34;;;6.39;47.69
20009;BME280;10165;42.662;23.260;2023-04-06T11:11:03;93677.63;;;6.56;46.93
20009;BME280;10165;42.662;23.260;2023-04-06T11:13:41;93684.97;;;6.27;48.03
20009;BME280;10165;42.662;23.260;2023-04-06T11:16:15;93673.38;;;6.88;46.07
20009;BME280;10165;42.662;23.260;2023-04-06T11:18:55;93676.84;;;6.44;47.14
20009;BME280;10165;42.662;23.260;2023-04-06T11:21:39;93676.84;;;6.56;47.68
20009;BME280;10165;42.662;23.260;2023-04-06T11:26:45;93666.66;;;5.80;48.48
20009;BME280;10165;42.662;23.260;2023-04-06T11:29:12;93674.56;;;5.89;49.57
20009;BME280;10165;42.662;23.260;2023-04-06T11:31:46;93667.78;;;6.45;48.22
20009;BME280;10165;42.662;23.260;2023-04-06T11:34:20;93667.72;;;6.78;48.22
20009;BME280;10165;42.662;23.260;2023-04-06T11:36:49;93663.28;;;6.69;46.94
20009;BME280;10165;42.662;23.260;2023-04-06T11:39:21;93660.75;;;6.16;47.52
20009;BME280;10165;42.662;23.260;2023-04-06T11:41:49;93666.72;;;6.70;46.90
20009;BME280;10165;42.662;23.260;2023-04-06T11:44:29;93655.50;;;6.52;46.55
20009;BME280;10165;42.662;23.260;2023-04-06T11:46:57;93665.34;;;6.40;46.40
20009;BME280;10165;42.662;23.260;2023-04-06T11:49:31;93659.59;;;6.50;46.40
20009;BME280;10165;42.662;23.260;2023-04-06T11:52:01;93652.44;;;6.87;46.39
20009;BME280;10165;42.662;23.260;2023-04-06T11:54:35;93651.47;;;7.03;45.51
20009;BME280;10165;42.662;23.260;2023-04-06T11:57:04;93651.03;;;6.77;46.35
20009;BME280;10165;42.662;23.260;2023-04-06T11:59:32;93649.78;;;6.74;46.32
20009;BME280;10165;42.662;23.260;2023-04-06T12:02:00;93659.22;;;6.96;45.75
20009;BME280;10165;42.662;23.260;2023-04-06T12:04:27;93662.16;;;6.13;46.97
20009;BME280;10165;42.662;23.260;2023-04-06T12:06:54;93650.00;;;6.57;47.12
20009;BME280;10165;42.662;23.260;2023-04-06T12:09:21;93653.88;;;6.72;46.28
20009;BME280;10165;42.662;23.260;2023-04-06T12:11:48;93647.00;;;6.71;46.36
20009;BME280;10165;42.662;23.260;2023-04-06T12:14:15;93645.34;;;7.39;45.18
20009;BME280;10165;42.662;23.260;2023-04-06T12:16:42;93653.44;;;6.58;45.44
20009;BME280;10165;42.662;23.260;2023-04-06T12:19:10;93652.84;;;6.40;46.89
20009;BME280;10165;42.662;23.260;2023-04-06T12:21:36;93641.03;;;6.50;45.49
20009;BME280;10165;42.662;23.260;2023-04-06T12:24:04;93650.63;;;6.42;46.08
20009;BME280;10165;42.662;23.260;2023-04-06T12:26:32;93651.13;;;6.93;44.46
20009;BME280;10165;42.662;23.260;2023-04-06T12:28:59;93652.78;;;6.85;44.60
20009;BME280;10165;42.662;23.260;2023-04-06T12:31:36;93654.09;;;6.79;45.01
20009;BME280;10165;42.662;23.260;2023-04-06T12:34:03;93653.78;;;6.68;44.81
20009;BME280;10165;42.662;23.260;2023-04-06T12:36:30;93647.56;;;6.52;45.11
20009;BME280;10165;42.662;23.260;2023-04-06T12:38:58;93645.06;;;7.04;44.87
20009;BME280;10165;42.662;23.260;2023-04-06T12:41:25;93653.22;;;6.51;44.96
20009;BME280;10165;42.662;23.260;2023-04-06T12:43:52;93643.50;;;6.79;45.36
20009;BME280;10165;42.662;23.260;2023-04-06T12:46:19;93635.97;;;6.57;44.76
20009;BME280;10165;42.662;23.260;2023-04-06T12:48:46;93646.13;;;6.43;45.30
20009;BME280;10165;42.662;23.260;2023-04-06T12:51:14;93634.09;;;6.69;45.66
20009;BME280;10165;42.662;23.260;2023-04-06T12:53:41;93628.44;;;6.95;45.62
20009;BME280;10165;42.662;23.260;2023-04-06T12:56:17;93636.84;;;6.73;46.14
20009;BME280;10165;42.662;23.260;2023-04-06T12:58:45;93631.53;;;6.61;45.13
20009;BME280;10165;42.662;23.260;2023-04-06T13:01:12;93628.22;;;6.76;45.27
20009;BME280;10165;42.662;23.260;2023-04-06T13:03:42;93627.34;;;6.60;44.81
20009;BME280;10165;42.662;23.260;2023-04-06T13:06:10;93627.13;;;6.65;44.58
20009;BME280;10165;42.662;23.260;2023-04-06T13:08:38;93632.09;;;6.54;44.39
20009;BME280;10165;42.662;23.260;2023-04-06T13:11:05;93629.63;;;6.37;44.76
20009;BME280;10165;42.662;23.260;2023-04-06T13:13:35;93628.19;;;6.28;44.83